sensor_id;sensor_type;location;lat;lon;timestamp;pressure;altitude;pressure_sealevel;temperature
61595;BMP280;47397;48.194;11.632;2024-01-30T00:00:14;97317.16;;;-0.52
61595;BMP280;47397;48.194;11.632;2024-01-30T00:01:14;97316.47;;;-0.48
61595;BMP280;47397;48.194;11.632;2024-01-30T00:02:15;97317.16;;;-0.52
61595;BMP280;47397;48.194;11.632;2024-01-30T00:03:15;97320.63;;;-0.49
61595;BMP280;47397;48.194;11.632;2024-01-30T00:04:15;97318.84;;;-0.51
61595;BMP280;47397;48.194;11.632;2024-01-30T00:05:16;97322.16;;;-0.52
61595;BMP280;47397;48.194;11.632;2024-01-30T00:06:18;97326.72;;;-0.42
61595;BMP280;47397;48.194;11.632;2024-01-30T00:07:18;97320.22;;;-0.39
61595;BMP280;47397;48.194;11.632;2024-01-30T00:08:20;97317.38;;;-0.27
61595;BMP280;47397;48.194;11.632;2024-01-30T00:09:20;97321.34;;;-0.32
61595;BMP280;47397;48.194;11.632;2024-01-30T00:10:21;97323.13;;;-0.29
61595;BMP280;47397;48.194;11.632;2024-01-30T00:11:21;97322.50;;;-0.24
61595;BMP280;47397;48.194;11.632;2024-01-30T00:12:21;97320.19;;;-0.19
61595;BMP280;47397;48.194;11.632;2024-01-30T00:13:22;97313.53;;;-0.19
61595;BMP280;47397;48.194;11.632;2024-01-30T00:14:22;97321.03;;;-0.19
61595;BMP280;47397;48.194;11.632;2024-01-30T00:15:23;97316.97;;;-0.17
61595;BMP280;47397;48.194;11.632;2024-01-30T00:16:24;97308.78;;;-0.13
61595;BMP280;47397;48.194;11.632;2024-01-30T00:17:24;97319.03;;;-0.27
61595;BMP280;47397;48.194;11.632;2024-01-30T00:18:25;97324.91;;;-0.46
61595;BMP280;47397;48.194;11.632;2024-01-30T00:19:25;97326.59;;;-0.45
61595;BMP280;47397;48.194;11.632;2024-01-30T00:20:25;97323.06;;;-0.50
61595;BMP280;47397;48.194;11.632;2024-01-30T00:21:26;97319.91;;;-0.46
61595;BMP280;47397;48.194;11.632;2024-01-30T00:22:26;97319.91;;;-0.46
61595;BMP280;47397;48.194;11.632;2024-01-30T00:23:28;97317.47;;;-0.45
61595;BMP280;47397;48.194;11.632;2024-01-30T00:24:28;97314.72;;;-0.51
61595;BMP280;47397;48.194;11.632;2024-01-30T00:25:28;97321.84;;;-0.39
61595;BMP280;47397;48.194;11.632;2024-01-30T00:26:29;97322.38;;;-0.27
61595;BMP280;47397;48.194;11.632;2024-01-30T00:27:29;97329.03;;;-0.27
61595;BMP280;47397;48.194;11.632;2024-01-30T00:28:29;97321.78;;;-0.41
61595;BMP280;47397;48.194;11.632;2024-01-30T00:29:29;97323.25;;;-0.46
61595;BMP280;47397;48.194;11.632;2024-01-30T00:30:30;97321.00;;;-0.40
61595;BMP280;47397;48.194;11.632;2024-01-30T00:31:31;97320.31;;;-0.37
61595;BMP280;47397;48.194;11.632;2024-01-30T00:32:31;97321.41;;;-0.30
61595;BMP280;47397;48.194;11.632;2024-01-30T00:33:32;97319.50;;;-0.36
61595;BMP280;47397;48.194;11.632;2024-01-30T00:34:32;97318.66;;;-0.37
61595;BMP280;47397;48.194;11.632;2024-01-30T00:35:32;97325.88;;;-0.43
61595;BMP280;47397;48.194;11.632;2024-01-30T00:36:33;97315.91;;;-0.62
61595;BMP280;47397;48.194;11.632;2024-01-30T00:37:33;97320.06;;;-0.63
61595;BMP280;47397;48.194;11.632;2024-01-30T00:38:35;97319.16;;;-0.65
61595;BMP280;47397;48.194;11.632;2024-01-30T00:39:35;97318.53;;;-0.78
61595;BMP280;47397;48.194;11.632;2024-01-30T00:40:35;97319.69;;;-0.72
61595;BMP280;47397;48.194;11.632;2024-01-30T00:41:36;97323.66;;;-0.56
61595;BMP280;47397;48.194;11.632;2024-01-30T00:42:36;97318.91;;;-0.50
61595;BMP280;47397;48.194;11.632;2024-01-30T00:43:36;97319.16;;;-0.44
61595;BMP280;47397;48.194;11.632;2024-01-30T00:44:37;97319.72;;;-0.51
61595;BMP280;47397;48.194;11.632;2024-01-30T00:45:37;97316.78;;;-0.61
61595;BMP280;47397;48.194;11.632;2024-01-30T00:46:37;97327.28;;;-0.69
61595;BMP280;47397;48.194;11.632;2024-01-30T00:47:38;97321.31;;;-0.72
61595;BMP280;47397;48.194;11.632;2024-01-30T00:48:38;97314.16;;;-0.65
61595;BMP280;47397;48.194;11.632;2024-01-30T00:49:38;97317.56;;;-0.63
61595;BMP280;47397;48.194;11.632;2024-01-30T00:50:39;97314.34;;;-0.60
61595;BMP280;47397;48.194;11.632;2024-01-30T00:51:39;97319.22;;;-0.63
61595;BMP280;47397;48.194;11.632;2024-01-30T00:52:39;97318.78;;;-0.53
61595;BMP280;47397;48.194;11.632;2024-01-30T00:53:41;97314.31;;;-0.41
61595;BMP280;47397;48.194;11.632;2024-01-30T00:54:41;97316.34;;;-0.32
61595;BMP280;47397;48.194;11.632;2024-01-30T00:55:42;97322.25;;;-0.30
61595;BMP280;47397;48.194;11.632;2024-01-30T00:56:42;97312.09;;;-0.35
61595;BMP280;47397;48.194;11.632;2024-01-30T00:57:42;97321.41;;;-0.50
61595;BMP280;47397;48.194;11.632;2024-01-30T00:58:43;97320.06;;;-0.63
61595;BMP280;47397;48.194;11.632;2024-01-30T00:59:43;97324.06;;;-0.66
61595;BMP280;47397;48.194;11.632;2024-01-30T01:00:43;97321.78;;;-0.61
61595;BMP280;47397;48.194;11.632;2024-01-30T01:01:44;97325.97;;;-0.60
61595;BMP280;47397;48.194;11.632;2024-01-30T01:02:44;97328.84;;;-0.51
61595;BMP280;47397;48.194;11.632;2024-01-30T01:03:44;97323.19;;;-0.47
61595;BMP280;47397;48.194;11.632;2024-01-30T01:04:45;97325.81;;;-0.44
61595;BMP280;47397;48.194;11.632;2024-01-30T01:05:45;97329.22;;;-0.42
61595;BMP280;47397;48.194;11.632;2024-01-30T01:06:45;97325.81;;;-0.44
61595;BMP280;47397;48.194;11.632;2024-01-30T01:07:46;97321.47;;;-0.48
61595;BMP280;47397;48.194;11.632;2024-01-30T01:08:47;97320.50;;;-0.52
61595;BMP280;47397;48.194;11.632;2024-01-30T01:09:48;97305.53;;;-0.52
61595;BMP280;47397;48.194;11.632;2024-01-30T01:10:48;97321.22;;;-0.54
61595;BMP280;47397;48.194;11.632;2024-01-30T01:11:48;97329.84;;;-0.67
61595;BMP280;47397;48.194;11.632;2024-01-30T01:12:49;97319.47;;;-0.76
61595;BMP280;47397;48.194;11.632;2024-01-30T01:13:49;97328.16;;;-0.68
61595;BMP280;47397;48.194;11.632;2024-01-30T01:14:49;97323.28;;;-0.65
61595;BMP280;47397;48.194;11.632;2024-01-30T01:15:50;97318.53;;;-0.59
61595;BMP280;47397;48.194;11.632;2024-01-30T01:16:50;97316.59;;;-0.66
61595;BMP280;47397;48.194;11.632;2024-01-30T01:17:50;97315.91;;;-0.81
61595;BMP280;47397;48.194;11.632;2024-01-30T01:18:50;97324.31;;;-0.79
61595;BMP280;47397;48.194;11.632;2024-01-30T01:19:51;97325.16;;;-0.79
61595;BMP280;47397;48.194;11.632;2024-01-30T01:20:51;97326.50;;;-0.87
61595;BMP280;47397;48.194;11.632;2024-01-30T01:21:51;97322.09;;;-0.92
61595;BMP280;47397;48.194;11.632;2024-01-30T01:22:52;97315.84;;;-1.02
61595;BMP280;47397;48.194;11.632;2024-01-30T01:23:53;97320.25;;;-0.97
61595;BMP280;47397;48.194;11.632;2024-01-30T01:24:54;97325.25;;;-0.97
61595;BMP280;47397;48.194;11.632;2024-01-30T01:25:54;97324.41;;;-0.97
61595;BMP280;47397;48.194;11.632;2024-01-30T01:26:54;97325.44;;;-0.92
61595;BMP280;47397;48.194;11.632;2024-01-30T01:27:55;97320.97;;;-0.99
61595;BMP280;47397;48.194;11.632;2024-01-30T01:28:55;97330.25;;;-0.97
61595;BMP280;47397;48.194;11.632;2024-01-30T01:29:55;97328.53;;;-0.98
61595;BMP280;47397;48.194;11.632;2024-01-30T01:30:55;97328.94;;;-0.88
61595;BMP280;47397;48.194;11.632;2024-01-30T01:31:56;97323.41;;;-0.81
61595;BMP280;47397;48.194;11.632;2024-01-30T01:32:57;97324.25;;;-0.81
61595;BMP280;47397;48.194;11.632;2024-01-30T01:33:57;97324.38;;;-0.78
61595;BMP280;47397;48.194;11.632;2024-01-30T01:34:57;97323.66;;;-0.75
61595;BMP280;47397;48.194;11.632;2024-01-30T01:35:57;97324.25;;;-0.81
61595;BMP280;47397;48.194;11.632;2024-01-30T01:36:58;97321.50;;;-0.87
61595;BMP280;47397;48.194;11.632;2024-01-30T01:37:58;97321.13;;;-0.96
61595;BMP280;47397;48.194;11.632;2024-01-30T01:39:00;97321.44;;;-1.08
61595;BMP280;47397;48.194;11.632;2024-01-30T01:40:00;97315.59;;;-1.08
61595;BMP280;47397;48.194;11.632;2024-01-30T01:41:00;97321.13;;;-1.14
61595;BMP280;47397;48.194;11.632;2024-01-30T01:42:01;97320.00;;;-1.03
61595;BMP280;47397;48.194;11.632;2024-01-30T01:43:03;97323.66;;;-0.95
61595;BMP280;47397;48.194;11.632;2024-01-30T01:44:04;97321.13;;;-0.96
61595;BMP280;47397;48.194;11.632;2024-01-30T01:45:05;97320.72;;;-0.86
61595;BMP280;47397;48.194;11.632;2024-01-30T01:46:06;97319.47;;;-0.76
61595;BMP280;47397;48.194;11.632;2024-01-30T01:47:06;97319.84;;;-0.86
61595;BMP280;47397;48.194;11.632;2024-01-30T01:48:07;97318.34;;;-0.83
61595;BMP280;47397;48.194;11.632;2024-01-30T01:49:08;97325.25;;;-0.77
61595;BMP280;47397;48.194;11.632;2024-01-30T01:50:08;97317.91;;;-0.74
61595;BMP280;47397;48.194;11.632;2024-01-30T01:51:09;97315.47;;;-0.73
61595;BMP280;47397;48.194;11.632;2024-01-30T01:52:09;97317.03;;;-0.75
61595;BMP280;47397;48.194;11.632;2024-01-30T01:53:10;97317.75;;;-0.77
61595;BMP280;47397;48.194;11.632;2024-01-30T01:54:12;97320.97;;;-0.80
61595;BMP280;47397;48.194;11.632;2024-01-30T01:55:13;97305.88;;;-0.83
61595;BMP280;47397;48.194;11.632;2024-01-30T01:56:15;97309.56;;;-0.94
61595;BMP280;47397;48.194;11.632;2024-01-30T01:57:15;97315.94;;;-1.01
61595;BMP280;47397;48.194;11.632;2024-01-30T01:58:16;97316.50;;;-1.06
61595;BMP280;47397;48.194;11.632;2024-01-30T01:59:17;97318.22;;;-1.05
61595;BMP280;47397;48.194;11.632;2024-01-30T02:00:18;97317.75;;;-0.97
61595;BMP280;47397;48.194;11.632;2024-01-30T02:01:19;97316.66;;;-1.03
61595;BMP280;47397;48.194;11.632;2024-01-30T02:02:20;97315.59;;;-1.08
61595;BMP280;47397;48.194;11.632;2024-01-30T02:03:21;97311.00;;;-0.99
61595;BMP280;47397;48.194;11.632;2024-01-30T02:04:21;97319.34;;;-0.99
61595;BMP280;47397;48.194;11.632;2024-01-30T02:05:22;97316.22;;;-1.12
61595;BMP280;47397;48.194;11.632;2024-01-30T02:06:22;97314.44;;;-1.15
61595;BMP280;47397;48.194;11.632;2024-01-30T02:07:23;97314.88;;;-1.06
61595;BMP280;47397;48.194;11.632;2024-01-30T02:08:24;97318.47;;;-0.99
61595;BMP280;47397;48.194;11.632;2024-01-30T02:09:25;97320.50;;;-0.90
61595;BMP280;47397;48.194;11.632;2024-01-30T02:10:26;97319.84;;;-0.86
61595;BMP280;47397;48.194;11.632;2024-01-30T02:11:27;97316.69;;;-0.82
61595;BMP280;47397;48.194;11.632;2024-01-30T02:12:28;97312.19;;;-0.91
61595;BMP280;47397;48.194;11.632;2024-01-30T02:13:28;97317.09;;;-0.92
61595;BMP280;47397;48.194;11.632;2024-01-30T02:14:28;97314.81;;;-1.07
61595;BMP280;47397;48.194;11.632;2024-01-30T02:15:29;97319.44;;;-1.15
61595;BMP280;47397;48.194;11.632;2024-01-30T02:16:29;97317.78;;;-1.14
61595;BMP280;47397;48.194;11.632;2024-01-30T02:17:29;97330.63;;;-1.07
61595;BMP280;47397;48.194;11.632;2024-01-30T02:18:30;97327.47;;;-1.03
61595;BMP280;47397;48.194;11.632;2024-01-30T02:19:30;97324.31;;;-0.99
61595;BMP280;47397;48.194;11.632;2024-01-30T02:20:31;97329.66;;;-0.91
61595;BMP280;47397;48.194;11.632;2024-01-30T02:21:33;97325.69;;;-0.86
61595;BMP280;47397;48.194;11.632;2024-01-30T02:22:34;97332.00;;;-0.94
61595;BMP280;47397;48.194;11.632;2024-01-30T02:23:34;97327.09;;;-0.92
61595;BMP280;47397;48.194;11.632;2024-01-30T02:24:35;97322.22;;;-0.89
61595;BMP280;47397;48.194;11.632;2024-01-30T02:25:38;97328.19;;;-0.86
61595;BMP280;47397;48.194;11.632;2024-01-30T02:26:39;97324.59;;;-0.92
61595;BMP280;47397;48.194;11.632;2024-01-30T02:27:39;97325.56;;;-0.89
61595;BMP280;47397;48.194;11.632;2024-01-30T02:28:39;97317.56;;;-1.01
61595;BMP280;47397;48.194;11.632;2024-01-30T02:29:39;97318.75;;;-0.93
61595;BMP280;47397;48.194;11.632;2024-01-30T02:30:40;97320.31;;;-0.95
61595;BMP280;47397;48.194;11.632;2024-01-30T02:31:40;97318.16;;;-0.87
61595;BMP280;47397;48.194;11.632;2024-01-30T02:32:40;97319.72;;;-0.89
61595;BMP280;47397;48.194;11.632;2024-01-30T02:33:41;97316.94;;;-1.15
61595;BMP280;47397;48.194;11.632;2024-01-30T02:34:41;97324.56;;;-1.12
61595;BMP280;47397;48.194;11.632;2024-01-30T02:35:42;97314.56;;;-1.12
61595;BMP280;47397;48.194;11.632;2024-01-30T02:36:44;97324.50;;;-1.13
61595;BMP280;47397;48.194;11.632;2024-01-30T02:37:44;97316.50;;;-1.06
61595;BMP280;47397;48.194;11.632;2024-01-30T02:38:44;97316.50;;;-1.06
61595;BMP280;47397;48.194;11.632;2024-01-30T02:39:44;97315.06;;;-1.01
61595;BMP280;47397;48.194;11.632;2024-01-30T02:40:45;97319.28;;;-1.00
61595;BMP280;47397;48.194;11.632;2024-01-30T02:41:45;97317.84;;;-1.13
61595;BMP280;47397;48.194;11.632;2024-01-30T02:42:45;97313.59;;;-1.15
61595;BMP280;47397;48.194;11.632;2024-01-30T02:43:46;97314.00;;;-1.06
61595;BMP280;47397;48.194;11.632;2024-01-30T02:44:46;97319.00;;;-1.06
61595;BMP280;47397;48.194;11.632;2024-01-30T02:45:47;97309.22;;;-1.02
61595;BMP280;47397;48.194;11.632;2024-01-30T02:46:47;97315.47;;;-1.11
61595;BMP280;47397;48.194;11.632;2024-01-30T02:47:47;97314.13;;;-1.22
61595;BMP280;47397;48.194;11.632;2024-01-30T02:48:48;97307.66;;;-1.37
61595;BMP280;47397;48.194;11.632;2024-01-30T02:49:48;97310.44;;;-1.31
61595;BMP280;47397;48.194;11.632;2024-01-30T02:50:48;97306.22;;;-1.32
61595;BMP280;47397;48.194;11.632;2024-01-30T02:51:51;97307.22;;;-1.28
61595;BMP280;47397;48.194;11.632;2024-01-30T02:52:51;97304.59;;;-1.31
61595;BMP280;47397;48.194;11.632;2024-01-30T02:53:51;97299.34;;;-1.18
61595;BMP280;47397;48.194;11.632;2024-01-30T02:54:52;97308.34;;;-1.21
61595;BMP280;47397;48.194;11.632;2024-01-30T02:55:52;97298.03;;;-1.29
61595;BMP280;47397;48.194;11.632;2024-01-30T02:56:52;97303.66;;;-1.33
61595;BMP280;47397;48.194;11.632;2024-01-30T02:57:53;97303.47;;;-1.38
61595;BMP280;47397;48.194;11.632;2024-01-30T02:58:53;97298.53;;;-1.36
61595;BMP280;47397;48.194;11.632;2024-01-30T02:59:53;97300.38;;;-1.32
61595;BMP280;47397;48.194;11.632;2024-01-30T03:00:54;97295.13;;;-1.19
61595;BMP280;47397;48.194;11.632;2024-01-30T03:01:54;97299.47;;;-1.34
61595;BMP280;47397;48.194;11.632;2024-01-30T03:02:54;97249.72;;;-1.31
61595;BMP280;47397;48.194;11.632;2024-01-30T03:03:54;97298.16;;;-1.31
61595;BMP280;47397;48.194;11.632;2024-01-30T03:04:55;97297.56;;;-1.40
61595;BMP280;47397;48.194;11.632;2024-01-30T03:05:55;97289.34;;;-1.37
61595;BMP280;47397;48.194;11.632;2024-01-30T03:06:57;97290.81;;;-1.37
61595;BMP280;47397;48.194;11.632;2024-01-30T03:07:57;97292.56;;;-1.23
61595;BMP280;47397;48.194;11.632;2024-01-30T03:08:57;97234.41;;;-1.39
61595;BMP280;47397;48.194;11.632;2024-01-30T03:09:58;97297.13;;;-1.49
61595;BMP280;47397;48.194;11.632;2024-01-30T03:10:58;97295.06;;;-1.49
61595;BMP280;47397;48.194;11.632;2024-01-30T03:11:58;97302.28;;;-1.58
61595;BMP280;47397;48.194;11.632;2024-01-30T03:12:59;97292.69;;;-1.46
61595;BMP280;47397;48.194;11.632;2024-01-30T03:13:59;97294.69;;;-1.37
61595;BMP280;47397;48.194;11.632;2024-01-30T03:14:59;97292.13;;;-1.30
61595;BMP280;47397;48.194;11.632;2024-01-30T03:15:59;97297.56;;;-1.20
61595;BMP280;47397;48.194;11.632;2024-01-30T03:17:00;97295.66;;;-1.26
61595;BMP280;47397;48.194;11.632;2024-01-30T03:18:01;97293.75;;;-1.32
61595;BMP280;47397;48.194;11.632;2024-01-30T03:19:02;97297.06;;;-1.50
61595;BMP280;47397;48.194;11.632;2024-01-30T03:20:02;97290.88;;;-1.59
61595;BMP280;47397;48.194;11.632;2024-01-30T03:21:03;97294.28;;;-1.57
61595;BMP280;47397;48.194;11.632;2024-01-30T03:22:05;97292.66;;;-1.56
61595;BMP280;47397;48.194;11.632;2024-01-30T03:23:05;97293.44;;;-1.56
61595;BMP280;47397;48.194;11.632;2024-01-30T03:24:05;97289.88;;;-1.44
61595;BMP280;47397;48.194;11.632;2024-01-30T03:25:07;97289.22;;;-1.40
61595;BMP280;47397;48.194;11.632;2024-01-30T03:26:07;97291.66;;;-1.42
61595;BMP280;47397;48.194;11.632;2024-01-30T03:27:08;97290.22;;;-1.42
61595;BMP280;47397;48.194;11.632;2024-01-30T03:28:08;97291.97;;;-1.34
61595;BMP280;47397;48.194;11.632;2024-01-30T03:29:09;97276.28;;;-1.34
61595;BMP280;47397;48.194;11.632;2024-01-30T03:30:09;97297.50;;;-1.32
61595;BMP280;47397;48.194;11.632;2024-01-30T03:31:10;97295.00;;;-1.22
61595;BMP280;47397;48.194;11.632;2024-01-30T03:32:10;97289.09;;;-1.24
61595;BMP280;47397;48.194;11.632;2024-01-30T03:33:10;97285.50;;;-1.31
61595;BMP280;47397;48.194;11.632;2024-01-30T03:34:11;97291.97;;;-1.34
61595;BMP280;47397;48.194;11.632;2024-01-30T03:35:11;97289.94;;;-1.23
61595;BMP280;47397;48.194;11.632;2024-01-30T03:36:11;97289.34;;;-1.37
61595;BMP280;47397;48.194;11.632;2024-01-30T03:37:13;97285.66;;;-1.37
61595;BMP280;47397;48.194;11.632;2024-01-30T03:38:13;97284.31;;;-1.57
61595;BMP280;47397;48.194;11.632;2024-01-30T03:39:14;97291.16;;;-1.52
61595;BMP280;47397;48.194;11.632;2024-01-30T03:40:14;97286.47;;;-1.46
61595;BMP280;47397;48.194;11.632;2024-01-30T03:41:14;97284.22;;;-1.40
61595;BMP280;47397;48.194;11.632;2024-01-30T03:42:15;97284.28;;;-1.39
61595;BMP280;47397;48.194;11.632;2024-01-30T03:43:15;97292.50;;;-1.41
61595;BMP280;47397;48.194;11.632;2024-01-30T03:44:15;97281.88;;;-1.41
61595;BMP280;47397;48.194;11.632;2024-01-30T03:45:16;97289.81;;;-1.27
61595;BMP280;47397;48.194;11.632;2024-01-30T03:46:16;97290.59;;;-1.28
61595;BMP280;47397;48.194;11.632;2024-01-30T03:47:16;97290.69;;;-1.26
61595;BMP280;47397;48.194;11.632;2024-01-30T03:48:17;97279.19;;;-1.42
61595;BMP280;47397;48.194;11.632;2024-01-30T03:49:17;97291.00;;;-1.38
61595;BMP280;47397;48.194;11.632;2024-01-30T03:50:17;97280.16;;;-1.38
61595;BMP280;47397;48.194;11.632;2024-01-30T03:51:18;97281.75;;;-1.38
61595;BMP280;47397;48.194;11.632;2024-01-30T03:52:19;97277.16;;;-1.49
61595;BMP280;47397;48.194;11.632;2024-01-30T03:53:20;97277.53;;;-1.41
61595;BMP280;47397;48.194;11.632;2024-01-30T03:54:20;97289.16;;;-1.42
61595;BMP280;47397;48.194;11.632;2024-01-30T03:55:20;97291.22;;;-1.51
61595;BMP280;47397;48.194;11.632;2024-01-30T03:56:20;97281.53;;;-1.63
61595;BMP280;47397;48.194;11.632;2024-01-30T03:57:21;97277.41;;;-1.62
61595;BMP280;47397;48.194;11.632;2024-01-30T03:58:21;97281.97;;;-1.53
61595;BMP280;47397;48.194;11.632;2024-01-30T03:59:22;97284.03;;;-1.45
61595;BMP280;47397;48.194;11.632;2024-01-30T04:00:22;97276.41;;;-1.48
61595;BMP280;47397;48.194;11.632;2024-01-30T04:01:22;97286.75;;;-1.58
61595;BMP280;47397;48.194;11.632;2024-01-30T04:02:22;97278.00;;;-1.68
61595;BMP280;47397;48.194;11.632;2024-01-30T04:03:23;97280.16;;;-1.75
61595;BMP280;47397;48.194;11.632;2024-01-30T04:04:23;97280.28;;;-1.75
61595;BMP280;47397;48.194;11.632;2024-01-30T04:05:23;97277.41;;;-1.62
61595;BMP280;47397;48.194;11.632;2024-01-30T04:06:24;97276.88;;;-1.74
61595;BMP280;47397;48.194;11.632;2024-01-30T04:07:25;97282.84;;;-1.71
61595;BMP280;47397;48.194;11.632;2024-01-30T04:08:26;97279.63;;;-1.68
61595;BMP280;47397;48.194;11.632;2024-01-30T04:09:26;97277.06;;;-1.70
61595;BMP280;47397;48.194;11.632;2024-01-30T04:10:26;97288.38;;;-1.59
61595;BMP280;47397;48.194;11.632;2024-01-30T04:11:27;97282.13;;;-1.68
61595;BMP280;47397;48.194;11.632;2024-01-30T04:12:27;97283.50;;;-1.75
61595;BMP280;47397;48.194;11.632;2024-01-30T04:13:27;97285.06;;;-1.77
61595;BMP280;47397;48.194;11.632;2024-01-30T04:14:28;97278.50;;;-1.75
61595;BMP280;47397;48.194;11.632;2024-01-30T04:15:28;97282.41;;;-1.62
61595;BMP280;47397;48.194;11.632;2024-01-30T04:16:28;97280.03;;;-1.59
61595;BMP280;47397;48.194;11.632;2024-01-30T04:17:29;97288.38;;;-1.59
61595;BMP280;47397;48.194;11.632;2024-01-30T04:18:29;97282.97;;;-1.68
61595;BMP280;47397;48.194;11.632;2024-01-30T04:19:30;97282.72;;;-1.74
61595;BMP280;47397;48.194;11.632;2024-01-30T04:20:30;97283.56;;;-1.73
61595;BMP280;47397;48.194;11.632;2024-01-30T04:21:30;97286.69;;;-1.77
61595;BMP280;47397;48.194;11.632;2024-01-30T04:22:32;97274.13;;;-1.61
61595;BMP280;47397;48.194;11.632;2024-01-30T04:23:32;97285.09;;;-1.58
61595;BMP280;47397;48.194;11.632;2024-01-30T04:24:33;97292.00;;;-1.52
61595;BMP280;47397;48.194;11.632;2024-01-30T04:25:33;97286.09;;;-1.54
61595;BMP280;47397;48.194;11.632;2024-01-30T04:26:33;97288.97;;;-1.64
61595;BMP280;47397;48.194;11.632;2024-01-30T04:27:34;97286.59;;;-1.61
61595;BMP280;47397;48.194;11.632;2024-01-30T04:28:34;97283.91;;;-1.66
61595;BMP280;47397;48.194;11.632;2024-01-30T04:29:34;97286.97;;;-1.71
61595;BMP280;47397;48.194;11.632;2024-01-30T04:30:35;97284.91;;;-1.62
61595;BMP280;47397;48.194;11.632;2024-01-30T04:31:36;97283.72;;;-1.62
61595;BMP280;47397;48.194;11.632;2024-01-30T04:32:36;97287.72;;;-1.51
61595;BMP280;47397;48.194;11.632;2024-01-30T04:33:36;97275.25;;;-1.54
61595;BMP280;47397;48.194;11.632;2024-01-30T04:34:37;97280.97;;;-1.57
61595;BMP280;47397;48.194;11.632;2024-01-30T04:35:37;97262.66;;;-1.58
61595;BMP280;47397;48.194;11.632;2024-01-30T04:36:38;97276.03;;;-1.55
61595;BMP280;47397;48.194;11.632;2024-01-30T04:37:39;97285.53;;;-1.66
61595;BMP280;47397;48.194;11.632;2024-01-30T04:38:40;97279.13;;;-1.61
61595;BMP280;47397;48.194;11.632;2024-01-30T04:39:40;97281.63;;;-1.61
61595;BMP280;47397;48.194;11.632;2024-01-30T04:40:40;97281.69;;;-1.60
61595;BMP280;47397;48.194;11.632;2024-01-30T04:41:41;97286.47;;;-1.64
61595;BMP280;47397;48.194;11.632;2024-01-30T04:42:41;97278.72;;;-1.70
61595;BMP280;47397;48.194;11.632;2024-01-30T04:43:41;97284.69;;;-1.67
61595;BMP280;47397;48.194;11.632;2024-01-30T04:44:41;97285.78;;;-1.79
61595;BMP280;47397;48.194;11.632;2024-01-30T04:45:42;97284.34;;;-1.74
61595;BMP280;47397;48.194;11.632;2024-01-30T04:46:42;97281.91;;;-1.73
61595;BMP280;47397;48.194;11.632;2024-01-30T04:47:42;97284.34;;;-1.73
61595;BMP280;47397;48.194;11.632;2024-01-30T04:48:43;97283.88;;;-1.85
61595;BMP280;47397;48.194;11.632;2024-01-30T04:49:43;97274.50;;;-1.89
61595;BMP280;47397;48.194;11.632;2024-01-30T04:50:43;97290.88;;;-1.94
61595;BMP280;47397;48.194;11.632;2024-01-30T04:51:44;97282.22;;;-1.84
61595;BMP280;47397;48.194;11.632;2024-01-30T04:52:45;97284.91;;;-1.80
61595;BMP280;47397;48.194;11.632;2024-01-30T04:53:46;97295.03;;;-1.77
61595;BMP280;47397;48.194;11.632;2024-01-30T04:54:46;97281.84;;;-1.74
61595;BMP280;47397;48.194;11.632;2024-01-30T04:55:46;97285.84;;;-1.78
61595;BMP280;47397;48.194;11.632;2024-01-30T04:56:47;97287.91;;;-1.69
61595;BMP280;47397;48.194;11.632;2024-01-30T04:57:47;97291.44;;;-1.64
61595;BMP280;47397;48.194;11.632;2024-01-30T04:58:47;97277.06;;;-1.70
61595;BMP280;47397;48.194;11.632;2024-01-30T04:59:48;97296.59;;;-1.79
61595;BMP280;47397;48.194;11.632;2024-01-30T05:00:48;97302.50;;;-1.77
61595;BMP280;47397;48.194;11.632;2024-01-30T05:01:48;97299.44;;;-1.71
61595;BMP280;47397;48.194;11.632;2024-01-30T05:02:48;97297.00;;;-1.70
61595;BMP280;47397;48.194;11.632;2024-01-30T05:03:49;97292.16;;;-1.67
61595;BMP280;47397;48.194;11.632;2024-01-30T05:04:49;97292.16;;;-1.67
61595;BMP280;47397;48.194;11.632;2024-01-30T05:05:49;97291.97;;;-1.71
61595;BMP280;47397;48.194;11.632;2024-01-30T05:06:50;97291.75;;;-1.76
61595;BMP280;47397;48.194;11.632;2024-01-30T05:07:51;97290.38;;;-1.69
61595;BMP280;47397;48.194;11.632;2024-01-30T05:08:52;97287.75;;;-1.72
61595;BMP280;47397;48.194;11.632;2024-01-30T05:09:52;97294.25;;;-1.76
61595;BMP280;47397;48.194;11.632;2024-01-30T05:10:52;97294.31;;;-1.92
61595;BMP280;47397;48.194;11.632;2024-01-30T05:11:53;97294.38;;;-1.91
61595;BMP280;47397;48.194;11.632;2024-01-30T05:12:53;97297.84;;;-1.87
61595;BMP280;47397;48.194;11.632;2024-01-30T05:13:53;97302.16;;;-1.84
61595;BMP280;47397;48.194;11.632;2024-01-30T05:14:54;97290.25;;;-1.90
61595;BMP280;47397;48.194;11.632;2024-01-30T05:15:54;97289.53;;;-1.88
61595;BMP280;47397;48.194;11.632;2024-01-30T05:16:54;97292.97;;;-1.85
61595;BMP280;47397;48.194;11.632;2024-01-30T05:17:54;97296.88;;;-1.91
61595;BMP280;47397;48.194;11.632;2024-01-30T05:18:55;97294.81;;;-1.81
61595;BMP280;47397;48.194;11.632;2024-01-30T05:19:55;97294.59;;;-1.86
61595;BMP280;47397;48.194;11.632;2024-01-30T05:20:55;97294.22;;;-1.94
61595;BMP280;47397;48.194;11.632;2024-01-30T05:21:56;97290.16;;;-1.92
61595;BMP280;47397;48.194;11.632;2024-01-30T05:22:57;97298.56;;;-2.07
61595;BMP280;47397;48.194;11.632;2024-01-30T05:23:58;97298.44;;;-2.10
61595;BMP280;47397;48.194;11.632;2024-01-30T05:24:58;97302.13;;;-2.02
61595;BMP280;47397;48.194;11.632;2024-01-30T05:25:59;97295.81;;;-1.96
61595;BMP280;47397;48.194;11.632;2024-01-30T05:26:59;97296.06;;;-1.90
61595;BMP280;47397;48.194;11.632;2024-01-30T05:27:59;97296.31;;;-1.85
61595;BMP280;47397;48.194;11.632;2024-01-30T05:29:00;97300.72;;;-1.97
61595;BMP280;47397;48.194;11.632;2024-01-30T05:30:00;97291.75;;;-1.94
61595;BMP280;47397;48.194;11.632;2024-01-30T05:31:00;97297.84;;;-1.87
61595;BMP280;47397;48.194;11.632;2024-01-30T05:32:01;97296.47;;;-1.82
61595;BMP280;47397;48.194;11.632;2024-01-30T05:33:01;97298.44;;;-1.93
61595;BMP280;47397;48.194;11.632;2024-01-30T05:34:01;97300.72;;;-1.97
61595;BMP280;47397;48.194;11.632;2024-01-30T05:35:02;97305.34;;;-1.87
61595;BMP280;47397;48.194;11.632;2024-01-30T05:36:03;97269.59;;;-1.88
61595;BMP280;47397;48.194;11.632;2024-01-30T05:37:03;97303.56;;;-1.90
61595;BMP280;47397;48.194;11.632;2024-01-30T05:38:05;97299.66;;;-1.84
61595;BMP280;47397;48.194;11.632;2024-01-30T05:39:05;97302.28;;;-1.81
61595;BMP280;47397;48.194;11.632;2024-01-30T05:40:06;97302.50;;;-1.77
61595;BMP280;47397;48.194;11.632;2024-01-30T05:41:08;97301.44;;;-1.82
61595;BMP280;47397;48.194;11.632;2024-01-30T05:42:08;97299.88;;;-1.80
61595;BMP280;47397;48.194;11.632;2024-01-30T05:43:09;97309.84;;;-1.80